createdAt,value
2023-02-11T00:01:26.374Z,7.95
2023-02-11T00:03:55.055Z,7.99
2023-02-11T00:06:27.938Z,8.11
2023-02-11T00:08:57.246Z,7.96
2023-02-11T00:11:30.378Z,7.89
2023-02-11T00:14:00.511Z,7.92
2023-02-11T00:16:29.529Z,8.03
2023-02-11T00:18:59.348Z,8.01
2023-02-11T00:21:29.803Z,7.88
2023-02-11T00:23:59.655Z,7.96
2023-02-11T00:26:30.948Z,7.83
2023-02-11T00:29:01.354Z,7.83
2023-02-11T00:31:29.418Z,7.96
2023-02-11T00:33:57.280Z,7.97
2023-02-11T00:36:29.612Z,7.89
2023-02-11T00:38:58.703Z,7.89
2023-02-11T00:41:26.703Z,7.91
2023-02-11T00:43:54.570Z,7.88
2023-02-11T00:46:23.158Z,7.87
2023-02-11T00:48:53.188Z,7.98
2023-02-11T00:51:22.409Z,7.96
2023-02-11T00:53:51.622Z,7.97
2023-02-11T00:56:19.716Z,7.94
2023-02-11T00:58:47.796Z,8.00
2023-02-11T01:01:15.783Z,7.99
2023-02-11T01:03:44.003Z,8.15
2023-02-11T01:06:12.392Z,8.03
2023-02-11T01:08:40.371Z,8.17
2023-02-11T01:11:15.933Z,8.18
2023-02-11T01:13:48.021Z,8.08
2023-02-11T01:16:18.100Z,7.99
2023-02-11T01:18:47.248Z,8.09
2023-02-11T01:21:15.067Z,8.16
2023-02-11T01:23:44.275Z,8.11
2023-02-11T01:26:14.182Z,8.10
2023-02-11T01:28:42.475Z,8.11
2023-02-11T01:31:10.322Z,8.23
2023-02-11T01:33:38.165Z,8.29
2023-02-11T01:36:08.788Z,8.38
2023-02-11T01:38:37.090Z,8.32
2023-02-11T01:41:07.510Z,8.28
2023-02-11T01:43:40.834Z,8.23
2023-02-11T01:46:28.930Z,8.40
2023-02-11T01:49:04.216Z,8.25
2023-02-11T01:51:39.966Z,8.32
2023-02-11T01:54:30.227Z,8.21
2023-02-11T01:57:20.761Z,8.13
2023-02-11T02:00:09.422Z,8.15
2023-02-11T02:02:55.761Z,8.21
2023-02-11T02:05:34.630Z,8.21
2023-02-11T02:08:11.872Z,8.24
2023-02-11T02:10:45.741Z,8.32
2023-02-11T02:13:14.706Z,8.33
2023-02-11T02:15:50.875Z,8.32
2023-02-11T02:18:35.889Z,8.29
2023-02-11T02:21:54.241Z,8.31
2023-02-11T02:25:00.969Z,8.18
2023-02-11T02:27:50.964Z,8.23
2023-02-11T02:31:23.697Z,8.20
2023-02-11T02:34:00.705Z,8.19
2023-02-11T02:36:37.013Z,8.08
2023-02-11T02:39:12.037Z,8.19
2023-02-11T02:41:42.123Z,8.21
2023-02-11T02:44:10.089Z,8.11
2023-02-11T02:46:37.987Z,8.07
2023-02-11T02:49:13.515Z,8.08
2023-02-11T02:52:16.113Z,8.07
2023-02-11T02:55:11.971Z,8.25
2023-02-11T02:58:05.121Z,8.20
2023-02-11T03:00:44.004Z,8.20
2023-02-11T03:03:31.482Z,8.21
2023-02-11T03:06:08.074Z,8.24
2023-02-11T03:08:43.961Z,8.18
2023-02-11T03:11:17.021Z,8.29
2023-02-11T03:13:48.680Z,8.39
2023-02-11T03:16:23.079Z,8.44
2023-02-11T03:18:59.459Z,8.43
2023-02-11T03:21:32.824Z,8.41
2023-02-11T03:24:07.403Z,8.33
2023-02-11T03:26:42.955Z,8.46
2023-02-11T03:29:23.119Z,8.37
2023-02-11T03:32:02.756Z,8.48
2023-02-11T03:34:42.055Z,8.31
2023-02-11T03:37:17.934Z,8.32
2023-02-11T03:39:54.530Z,8.24
2023-02-11T03:42:30.272Z,8.36
2023-02-11T03:45:04.295Z,8.40
2023-02-11T03:47:37.754Z,8.35
2023-02-11T03:50:10.257Z,8.18
2023-02-11T03:52:39.760Z,8.13
2023-02-11T03:55:13.249Z,8.33
2023-02-11T03:57:41.475Z,8.32
2023-02-11T04:00:11.947Z,8.20
2023-02-11T04:02:41.941Z,8.20
2023-02-11T04:05:13.927Z,8.22
2023-02-11T04:07:43.238Z,8.29
2023-02-11T04:10:12.419Z,8.28
2023-02-11T04:12:40.346Z,8.33
2023-02-11T04:15:08.726Z,8.19
2023-02-11T04:17:37.084Z,8.20
2023-02-11T04:20:05.834Z,8.32
2023-02-11T04:22:33.676Z,8.13
2023-02-11T04:25:03.770Z,8.22
2023-02-11T04:27:31.769Z,8.24
2023-02-11T04:29:59.533Z,8.35
2023-02-11T04:32:27.390Z,8.31
2023-02-11T04:34:55.383Z,8.18
2023-02-11T04:37:23.181Z,8.20
2023-02-11T04:39:51.015Z,8.20
2023-02-11T04:42:20.214Z,8.31
2023-02-11T04:44:48.071Z,8.26
2023-02-11T04:47:16.053Z,8.16
2023-02-11T04:49:43.989Z,8.19
2023-02-11T04:52:11.830Z,8.33
2023-02-11T04:54:39.864Z,8.33
2023-02-11T04:57:07.821Z,8.13
2023-02-11T04:59:37.157Z,8.24
2023-02-11T05:02:04.934Z,8.06
2023-02-11T05:04:32.779Z,8.15
2023-02-11T05:07:00.879Z,8.19
2023-02-11T05:09:28.844Z,7.97
2023-02-11T05:11:56.802Z,8.00
2023-02-11T05:14:24.627Z,8.09
2023-02-11T05:16:53.764Z,8.11
2023-02-11T05:19:21.720Z,8.09
2023-02-11T05:22:01.655Z,8.09
2023-02-11T05:24:31.409Z,7.95
2023-02-11T05:26:59.483Z,8.08
2023-02-11T05:29:28.384Z,8.15
2023-02-11T05:32:00.033Z,8.23
2023-02-11T05:34:28.060Z,8.21
2023-02-11T05:36:56.206Z,8.26
2023-02-11T05:39:24.109Z,8.26
2023-02-11T05:41:51.843Z,8.29
2023-02-11T05:44:19.655Z,8.16
2023-02-11T05:46:49.075Z,8.17
2023-02-11T05:49:19.591Z,8.02
2023-02-11T05:51:47.673Z,8.17
2023-02-11T05:54:15.750Z,8.15
2023-02-11T05:56:44.889Z,8.27
2023-02-11T05:59:14.275Z,8.30
2023-02-11T06:01:42.254Z,8.19
2023-02-11T06:04:10.046Z,8.33
2023-02-11T06:06:39.233Z,8.38
2023-02-11T06:09:07.088Z,8.19
2023-02-11T06:11:34.945Z,8.22
2023-02-11T06:14:02.989Z,8.28
2023-02-11T06:16:30.763Z,8.07
2023-02-11T06:18:58.628Z,8.22
2023-02-11T06:21:36.371Z,8.04
2023-02-11T06:24:12.420Z,8.17
2023-02-11T06:26:40.338Z,8.25
2023-02-11T06:29:08.502Z,8.02
2023-02-11T06:31:38.849Z,7.95
2023-02-11T06:34:07.317Z,8.00
2023-02-11T06:36:36.465Z,7.94
2023-02-11T06:39:05.158Z,7.92
2023-02-11T06:41:34.487Z,7.93
2023-02-11T06:44:02.274Z,7.97
2023-02-11T06:46:30.301Z,7.86
2023-02-11T06:48:58.077Z,7.91
2023-02-11T06:51:25.965Z,8.01
2023-02-11T06:53:54.587Z,7.92
2023-02-11T06:56:27.146Z,7.80
2023-02-11T06:58:57.438Z,7.90
2023-02-11T07:01:27.070Z,7.99
2023-02-11T07:03:55.804Z,7.99
2023-02-11T07:06:27.712Z,8.10
2023-02-11T07:08:56.619Z,8.08
2023-02-11T07:11:28.080Z,8.12
2023-02-11T07:14:02.468Z,8.11
2023-02-11T07:16:31.487Z,8.10
2023-02-11T07:18:59.324Z,8.10
2023-02-11T07:21:27.607Z,8.25
2023-02-11T07:23:55.480Z,8.20
2023-02-11T07:26:25.703Z,8.29
2023-02-11T07:28:56.797Z,8.17
2023-02-11T07:31:30.275Z,8.14
2023-02-11T07:34:01.639Z,8.15
2023-02-11T07:36:31.855Z,8.17
2023-02-11T07:39:00.353Z,8.29
2023-02-11T07:41:29.142Z,8.16
2023-02-11T07:43:58.248Z,8.23
2023-02-11T07:46:28.096Z,8.41
2023-02-11T07:48:56.509Z,8.28
2023-02-11T07:51:28.369Z,8.20
2023-02-11T07:53:59.685Z,8.11
2023-02-11T07:56:29.528Z,8.23
2023-02-11T07:59:02.949Z,8.21
2023-02-11T08:01:31.182Z,8.27
2023-02-11T08:04:01.261Z,8.19
2023-02-11T08:06:33.217Z,8.18
2023-02-11T08:09:06.998Z,8.29
2023-02-11T08:11:35.510Z,8.37
2023-02-11T08:14:04.766Z,8.31
2023-02-11T08:16:35.825Z,8.25
2023-02-11T08:19:07.118Z,8.33
2023-02-11T08:21:35.209Z,8.44
2023-02-11T08:24:04.158Z,8.50
2023-02-11T08:26:34.876Z,8.45
2023-02-11T08:29:09.565Z,8.53
2023-02-11T08:31:40.756Z,8.58
2023-02-11T08:34:10.551Z,8.52
2023-02-11T08:36:40.936Z,8.44
2023-02-11T08:39:21.405Z,8.68
2023-02-11T08:41:52.714Z,8.61
2023-02-11T08:44:23.388Z,8.65
2023-02-11T08:46:52.366Z,8.56
2023-02-11T08:49:20.612Z,8.56
2023-02-11T08:51:49.095Z,8.52
2023-02-11T08:54:17.032Z,8.64
2023-02-11T08:56:45.291Z,8.56
2023-02-11T08:59:15.386Z,8.55
2023-02-11T09:01:46.523Z,8.68
2023-02-11T09:04:14.771Z,8.74
2023-02-11T09:06:42.737Z,8.81
2023-02-11T09:09:13.457Z,8.87
2023-02-11T09:11:43.159Z,8.92
2023-02-11T09:14:18.550Z,8.86
2023-02-11T09:16:49.421Z,8.98
2023-02-11T09:19:18.280Z,8.92
2023-02-11T09:21:46.766Z,9.00
2023-02-11T09:24:15.181Z,8.84
2023-02-11T09:26:43.940Z,8.78
2023-02-11T09:29:11.868Z,8.58
2023-02-11T09:31:39.987Z,8.72
2023-02-11T09:34:11.407Z,8.76
2023-02-11T09:36:41.026Z,8.96
2023-02-11T09:39:14.564Z,8.90
2023-02-11T09:42:10.420Z,8.82
2023-02-11T09:44:39.632Z,8.83
2023-02-11T09:47:25.643Z,8.90
2023-02-11T09:50:01.314Z,8.94
2023-02-11T09:52:36.677Z,8.95
2023-02-11T09:55:17.198Z,9.00
2023-02-11T09:57:45.432Z,8.79
2023-02-11T10:00:21.715Z,8.95
2023-02-11T10:03:11.743Z,8.96
2023-02-11T10:06:13.008Z,8.99
2023-02-11T10:08:55.735Z,8.86
2023-02-11T10:11:35.432Z,8.96
2023-02-11T10:14:30.273Z,9.00
2023-02-11T10:17:17.621Z,8.98
2023-02-11T10:20:06.963Z,8.80
2023-02-11T10:22:45.921Z,8.79
2023-02-11T10:25:23.293Z,8.89
2023-02-11T10:27:55.054Z,8.90
2023-02-11T10:30:32.322Z,8.90
2023-02-11T10:33:06.141Z,9.04
2023-02-11T10:35:34.158Z,9.08
2023-02-11T10:38:03.634Z,9.10
2023-02-11T10:40:34.863Z,9.14
2023-02-11T10:43:11.766Z,9.07
2023-02-11T10:45:46.714Z,9.18
2023-02-11T10:48:40.836Z,9.30
2023-02-11T10:51:18.260Z,9.31
2023-02-11T10:53:49.887Z,9.28
2023-02-11T10:56:27.244Z,9.18
2023-02-11T10:59:00.371Z,9.24
2023-02-11T11:01:46.107Z,9.22
2023-02-11T11:04:39.603Z,9.26
2023-02-11T11:07:25.147Z,9.27
2023-02-11T11:10:02.575Z,9.11
2023-02-11T11:12:47.395Z,9.25
2023-02-11T11:15:21.812Z,9.27
2023-02-11T11:18:20.199Z,9.34
2023-02-11T11:20:59.559Z,9.50
2023-02-11T11:23:30.667Z,9.43
2023-02-11T11:26:08.457Z,9.59
2023-02-11T11:28:51.722Z,9.47
2023-02-11T11:31:25.158Z,9.55
2023-02-11T11:33:59.377Z,9.63
2023-02-11T11:36:44.115Z,9.84
2023-02-11T11:39:26.519Z,9.54
2023-02-11T11:42:02.157Z,9.67
2023-02-11T11:44:37.414Z,9.57
2023-02-11T11:47:24.487Z,9.56
2023-02-11T11:50:23.032Z,9.82
2023-02-11T11:53:04.398Z,9.72
2023-02-11T11:55:44.067Z,9.68
2023-02-11T11:58:20.546Z,9.72
2023-02-11T12:01:05.690Z,9.85
2023-02-11T12:04:19.287Z,9.73
2023-02-11T12:07:08.698Z,9.84
2023-02-11T12:10:04.621Z,10.01
2023-02-11T12:12:51.618Z,9.91
2023-02-11T12:15:36.573Z,9.99
2023-02-11T12:18:24.640Z,9.99
2023-02-11T12:21:15.885Z,9.99
2023-02-11T12:24:17.271Z,10.20
2023-02-11T12:26:57.875Z,10.13
2023-02-11T12:29:42.141Z,10.09
2023-02-11T12:32:26.734Z,10.09
2023-02-11T12:35:13.881Z,10.09
2023-02-11T12:38:08.491Z,10.19
2023-02-11T12:40:53.450Z,10.28
2023-02-11T12:43:25.715Z,10.40
2023-02-11T12:46:25.432Z,10.66
2023-02-11T12:49:29.364Z,10.77
2023-02-11T12:52:33.646Z,11.04
2023-02-11T12:55:10.833Z,11.10
2023-02-11T12:57:44.593Z,11.04
2023-02-11T13:00:23.042Z,11.08
2023-02-11T13:03:01.951Z,11.10
2023-02-11T13:05:40.366Z,10.81
2023-02-11T13:08:15.889Z,10.86
2023-02-11T13:10:50.546Z,10.97
2023-02-11T13:13:23.911Z,11.13
2023-02-11T13:15:59.979Z,11.03
2023-02-11T13:18:49.303Z,11.06
2023-02-11T13:21:37.167Z,11.20
2023-02-11T13:24:23.886Z,11.23
2023-02-11T13:27:10.357Z,11.33
2023-02-11T13:30:13.306Z,11.30
2023-02-11T13:33:30.795Z,11.48
2023-02-11T13:36:25.458Z,11.49
2023-02-11T13:38:58.661Z,11.40
2023-02-11T13:41:34.101Z,11.40
2023-02-11T13:44:22.477Z,11.32
2023-02-11T13:46:59.712Z,11.30
2023-02-11T13:49:35.663Z,11.50
2023-02-11T13:52:18.765Z,11.50
2023-02-11T13:54:51.112Z,11.75
2023-02-11T13:57:32.851Z,11.89
2023-02-11T14:00:08.439Z,11.79
2023-02-11T14:02:57.575Z,11.83
2023-02-11T14:05:48.635Z,11.80
2023-02-11T14:08:44.095Z,12.01
2023-02-11T14:11:48.686Z,11.85
2023-02-11T14:14:24.625Z,12.03
2023-02-11T14:17:31.138Z,11.81
2023-02-11T14:20:04.618Z,11.74
2023-02-11T14:22:50.279Z,11.97
2023-02-11T14:25:24.187Z,11.54
2023-02-11T14:27:59.290Z,11.69
2023-02-11T14:30:48.801Z,11.78
2023-02-11T14:33:49.701Z,11.55
2023-02-11T14:36:51.804Z,11.53
2023-02-11T14:39:40.642Z,11.47
2023-02-11T14:42:20.800Z,11.51
2023-02-11T14:44:52.655Z,11.39
2023-02-11T14:47:29.356Z,11.42
2023-02-11T14:49:57.827Z,11.30
2023-02-11T14:52:34.476Z,11.31
2023-02-11T14:55:31.303Z,11.42
2023-02-11T14:58:18.390Z,11.36
2023-02-11T15:00:54.709Z,11.37
2023-02-11T15:03:35.697Z,11.37
2023-02-11T15:06:13.103Z,11.29
2023-02-11T15:08:50.732Z,11.39
2023-02-11T15:11:23.710Z,11.65
2023-02-11T15:13:56.363Z,11.59
2023-02-11T15:16:28.719Z,11.70
2023-02-11T15:19:03.638Z,11.50
2023-02-11T15:21:36.347Z,11.39
2023-02-11T15:24:24.285Z,11.44
2023-02-11T15:27:01.738Z,11.74
2023-02-11T15:29:40.927Z,11.68
2023-02-11T15:32:16.895Z,11.73
2023-02-11T15:34:46.714Z,11.63
2023-02-11T15:37:21.073Z,11.55
2023-02-11T15:39:50.426Z,11.48
2023-02-11T15:42:26.047Z,11.51
2023-02-11T15:45:25.990Z,11.70
2023-02-11T15:47:59.290Z,11.48
2023-02-11T15:50:30.976Z,11.45
2023-02-11T15:53:21.075Z,11.57
2023-02-11T15:55:53.957Z,11.53
2023-02-11T15:58:24.180Z,11.39
2023-02-11T16:00:59.868Z,11.30
2023-02-11T16:03:33.067Z,11.28
2023-02-11T16:06:19.817Z,11.25
2023-02-11T16:09:04.250Z,11.22
2023-02-11T16:11:34.750Z,11.27
2023-02-11T16:14:23.840Z,11.31
2023-02-11T16:17:02.652Z,11.29
2023-02-11T16:19:34.146Z,11.27
2023-02-11T16:22:10.375Z,11.23
2023-02-11T16:24:40.086Z,11.38
2023-02-11T16:27:22.658Z,11.37
2023-02-11T16:29:52.770Z,11.35
2023-02-11T16:32:26.188Z,11.13
2023-02-11T16:34:58.036Z,11.07
2023-02-11T16:37:26.696Z,11.22
2023-02-11T16:39:55.332Z,11.18
2023-02-11T16:42:23.561Z,11.15
2023-02-11T16:44:51.693Z,11.39
2023-02-11T16:47:26.663Z,11.49
2023-02-11T16:49:56.749Z,11.58
2023-02-11T16:52:25.668Z,11.42
2023-02-11T16:54:54.307Z,11.29
2023-02-11T16:57:24.745Z,11.43
2023-02-11T16:59:53.214Z,11.29
2023-02-11T17:02:27.631Z,11.10
2023-02-11T17:05:00.599Z,10.95
2023-02-11T17:07:29.383Z,11.02
2023-02-11T17:09:57.827Z,11.05
2023-02-11T17:12:35.376Z,10.99
2023-02-11T17:15:06.028Z,11.04
2023-02-11T17:17:48.695Z,11.00
2023-02-11T17:20:17.594Z,11.02
2023-02-11T17:22:46.993Z,11.07
2023-02-11T17:25:21.212Z,11.30
2023-02-11T17:27:51.865Z,11.29
2023-02-11T17:30:22.955Z,11.22
2023-02-11T17:32:52.724Z,11.21
2023-02-11T17:35:22.056Z,11.26
2023-02-11T17:37:50.264Z,11.29
2023-02-11T17:40:18.592Z,11.26
2023-02-11T17:42:46.644Z,11.39
2023-02-11T17:45:14.869Z,11.34
2023-02-11T17:47:43.339Z,11.27
2023-02-11T17:50:12.678Z,11.29
2023-02-11T17:52:40.564Z,11.43
2023-02-11T17:55:08.743Z,11.42
2023-02-11T17:57:38.984Z,11.39
2023-02-11T18:00:09.794Z,11.36
2023-02-11T18:02:40.888Z,11.24
2023-02-11T18:05:10.146Z,11.22
2023-02-11T18:07:39.669Z,11.17
2023-02-11T18:10:09.869Z,11.06
2023-02-11T18:12:38.552Z,11.07
2023-02-11T18:15:07.615Z,11.14
2023-02-11T18:17:37.878Z,11.35
2023-02-11T18:20:08.712Z,11.30
2023-02-11T18:22:39.429Z,11.25
2023-02-11T18:25:13.218Z,11.34
2023-02-11T18:27:43.655Z,11.25
2023-02-11T18:30:18.769Z,11.07
2023-02-11T18:32:47.026Z,10.99
2023-02-11T18:35:15.839Z,10.90
2023-02-11T18:37:45.061Z,10.90
2023-02-11T18:40:15.070Z,10.87
2023-02-11T18:42:45.956Z,10.84
2023-02-11T18:45:15.482Z,10.81
2023-02-11T18:47:45.709Z,10.87
2023-02-11T18:50:15.635Z,11.02
2023-02-11T18:52:43.870Z,10.95
2023-02-11T18:55:11.931Z,10.93
2023-02-11T18:57:43.208Z,10.92
2023-02-11T19:00:13.002Z,10.91
2023-02-11T19:02:42.426Z,10.73
2023-02-11T19:05:11.314Z,10.80
2023-02-11T19:07:39.757Z,10.94
2023-02-11T19:10:10.155Z,10.95
2023-02-11T19:12:39.204Z,10.94
2023-02-11T19:15:09.617Z,11.01
2023-02-11T19:17:37.944Z,10.94
2023-02-11T19:20:08.285Z,10.91
2023-02-11T19:22:36.384Z,10.86
2023-02-11T19:25:06.100Z,10.99
2023-02-11T19:27:37.008Z,11.03
2023-02-11T19:30:06.888Z,11.12
2023-02-11T19:32:36.454Z,11.13
2023-02-11T19:35:05.452Z,11.04
2023-02-11T19:37:33.652Z,11.00
2023-02-11T19:40:02.025Z,11.04
2023-02-11T19:42:29.963Z,11.00
2023-02-11T19:44:57.950Z,10.97
2023-02-11T19:47:27.844Z,10.96
2023-02-11T19:49:57.314Z,11.05
2023-02-11T19:52:25.810Z,10.99
2023-02-11T19:54:53.991Z,11.05
2023-02-11T19:57:22.148Z,11.03
2023-02-11T19:59:50.867Z,11.03
2023-02-11T20:02:18.792Z,10.92
2023-02-11T20:04:46.811Z,11.04
2023-02-11T20:07:16.419Z,10.99
2023-02-11T20:09:46.690Z,10.91
2023-02-11T20:12:14.784Z,10.89
2023-02-11T20:14:42.845Z,10.87
2023-02-11T20:17:10.852Z,10.88
2023-02-11T20:19:39.088Z,10.88
2023-02-11T20:22:07.220Z,10.76
2023-02-11T20:24:36.549Z,10.87
2023-02-11T20:27:08.411Z,10.93
2023-02-11T20:29:39.516Z,10.87
2023-02-11T20:32:08.408Z,10.87
2023-02-11T20:34:36.783Z,10.94
2023-02-11T20:37:05.942Z,10.75
2023-02-11T20:39:41.017Z,10.88
2023-02-11T20:42:11.528Z,10.91
2023-02-11T20:44:39.542Z,10.84
2023-02-11T20:47:07.619Z,10.77
2023-02-11T20:49:35.684Z,10.78
2023-02-11T20:52:04.452Z,10.94
2023-02-11T20:54:32.384Z,10.85
2023-02-11T20:57:02.259Z,10.77
2023-02-11T20:59:30.323Z,10.70
2023-02-11T21:01:58.866Z,10.59
2023-02-11T21:04:30.611Z,10.69
2023-02-11T21:07:01.446Z,10.72
2023-02-11T21:09:32.329Z,10.74
2023-02-11T21:12:02.875Z,10.68
2023-02-11T21:14:31.400Z,10.77
2023-02-11T21:16:59.605Z,10.74
2023-02-11T21:19:27.698Z,10.62
2023-02-11T21:21:57.264Z,10.67
2023-02-11T21:24:25.440Z,10.66
2023-02-11T21:26:53.575Z,10.68
2023-02-11T21:29:23.257Z,10.66
2023-02-11T21:31:51.459Z,10.49
2023-02-11T21:34:20.114Z,10.66
2023-02-11T21:36:51.272Z,10.57
2023-02-11T21:39:20.444Z,10.60
2023-02-11T21:41:48.759Z,10.63
2023-02-11T21:44:16.931Z,10.80
2023-02-11T21:46:46.345Z,10.66
2023-02-11T21:49:14.461Z,10.68
2023-02-11T21:51:42.731Z,10.50
2023-02-11T21:54:11.820Z,10.53
2023-02-11T21:56:40.650Z,10.51
2023-02-11T21:59:17.840Z,10.62
2023-02-11T22:01:47.391Z,10.61
2023-02-11T22:04:15.468Z,10.54
2023-02-11T22:06:43.764Z,10.47
2023-02-11T22:09:11.899Z,10.59
2023-02-11T22:11:40.274Z,10.54
2023-02-11T22:14:08.784Z,10.65
2023-02-11T22:16:36.886Z,10.44
2023-02-11T22:19:07.516Z,10.63
2023-02-11T22:21:37.567Z,10.64
2023-02-11T22:24:06.721Z,10.72
2023-02-11T22:26:34.914Z,10.70
2023-02-11T22:29:03.644Z,10.56
2023-02-11T22:31:34.802Z,10.78
2023-02-11T22:34:04.639Z,10.91
2023-02-11T22:36:36.769Z,10.97
2023-02-11T22:39:08.326Z,11.02
2023-02-11T22:41:38.411Z,11.11
2023-02-11T22:44:07.043Z,11.15
2023-02-11T22:46:35.781Z,11.06
2023-02-11T22:49:04.455Z,11.01
2023-02-11T22:51:34.290Z,11.04
2023-02-11T22:54:05.625Z,11.26
2023-02-11T22:56:35.283Z,11.30
2023-02-11T22:59:07.941Z,11.29
2023-02-11T23:01:37.261Z,11.34
2023-02-11T23:04:08.515Z,11.43
2023-02-11T23:06:37.935Z,11.32
2023-02-11T23:09:07.840Z,11.20
2023-02-11T23:11:36.242Z,11.07
2023-02-11T23:14:05.133Z,10.89
2023-02-11T23:16:34.877Z,10.86
2023-02-11T23:19:07.240Z,10.83
2023-02-11T23:21:39.331Z,10.79
2023-02-11T23:24:11.679Z,10.74
2023-02-11T23:26:41.002Z,10.68
2023-02-11T23:29:10.017Z,10.77
2023-02-11T23:31:41.225Z,10.81
2023-02-11T23:34:09.941Z,10.82
2023-02-11T23:36:39.007Z,10.73
2023-02-11T23:39:06.780Z,10.70
2023-02-11T23:41:34.728Z,10.78
2023-02-11T23:44:02.634Z,10.62
2023-02-11T23:46:30.353Z,10.64
2023-02-11T23:48:58.178Z,10.60
2023-02-11T23:51:25.946Z,10.59
2023-02-11T23:53:56.116Z,10.50
2023-02-11T23:56:27.857Z,10.52
2023-02-11T23:58:59.437Z,10.38
